Time;durP1;ratioP1;P1;durP2;ratioP2;P2;SDS_P1;SDS_P2;PMS_P1;PMS_P2;Temp;Humidity;BMP_temperature;BMP_pressure;BME280_temperature;BME280_humidity;BME280_pressure;Samples;Min_cycle;Max_cycle;Signal;HPM_P1;HPM_P2
2023/08/25 00:00:43;;;;;;;7.10;4.28;;;;;;;;;;4984635;28;20046;-63
2023/08/25 00:03:08;;;;;;;9.07;4.40;;;;;;;;;;4993630;28;20026;-63
2023/08/25 00:05:39;;;;;;;9.20;4.57;;;;;;;;;;4993664;28;20510;-63
2023/08/25 00:08:05;;;;;;;9.65;4.57;;;;;;;;;;4993451;28;20431;-62
2023/08/25 00:10:32;;;;;;;9.82;4.05;;;;;;;;;;4974390;28;20030;-64
2023/08/25 00:12:58;;;;;;;13.55;4.60;;;;;;;;;;4974140;28;20099;-62
2023/08/25 00:15:23;;;;;;;12.85;4.70;;;;;;;;;;4974074;28;20098;-64
2023/08/25 00:20:14;;;;;;;10.48;4.65;;;;;;;;;;5898209;23;20089;-64
2023/08/25 00:22:40;;;;;;;8.32;4.88;;;;;;;;;;4974364;28;20062;-62
2023/08/25 00:25:06;;;;;;;14.73;4.95;;;;;;;;;;4973952;28;20109;-61
2023/08/25 00:27:31;;;;;;;8.98;4.80;;;;;;;;;;4980236;28;20026;-61
2023/08/25 00:29:57;;;;;;;10.95;4.50;;;;;;;;;;4973720;28;20027;-62
2023/08/25 00:32:22;;;;;;;6.50;4.15;;;;;;;;;;4973754;28;20027;-62
2023/08/25 00:34:48;;;;;;;9.95;4.32;;;;;;;;;;4973717;28;20035;-61
2023/08/25 00:37:13;;;;;;;12.07;4.80;;;;;;;;;;4973711;28;20447;-62
2023/08/25 00:39:39;;;;;;;8.02;4.15;;;;;;;;;;4975255;28;20042;-62
2023/08/25 00:42:05;;;;;;;9.32;4.38;;;;;;;;;;4973504;28;20027;-62
2023/08/25 00:44:30;;;;;;;7.10;4.18;;;;;;;;;;4973535;28;20030;-63
2023/08/25 00:46:56;;;;;;;7.07;3.75;;;;;;;;;;4973783;28;20403;-62
2023/08/25 00:49:22;;;;;;;8.77;4.05;;;;;;;;;;4973531;28;20384;-62
2023/08/25 00:51:49;;;;;;;8.55;3.90;;;;;;;;;;4973476;28;20039;-63
2023/08/25 00:54:14;;;;;;;10.10;3.72;;;;;;;;;;4973526;28;20043;-62
2023/08/25 00:56:40;;;;;;;5.63;3.67;;;;;;;;;;4973534;28;20119;-61
2023/08/25 00:59:05;;;;;;;5.82;3.50;;;;;;;;;;4973506;28;20031;-61
2023/08/25 01:01:31;;;;;;;6.10;3.58;;;;;;;;;;4973294;28;20579;-61
2023/08/25 01:03:56;;;;;;;5.72;3.47;;;;;;;;;;4973378;28;20031;-62
2023/08/25 01:06:22;;;;;;;10.05;3.70;;;;;;;;;;4965630;28;20476;-62
2023/08/25 01:08:49;;;;;;;10.27;3.85;;;;;;;;;;4973501;28;20034;-61
2023/08/25 01:11:17;;;;;;;7.65;3.75;;;;;;;;;;4973539;28;20034;-65
2023/08/25 01:14:03;;;;;;;9.38;3.75;;;;;;;;;;4973491;28;20129;-62
2023/08/25 01:16:35;;;;;;;5.82;3.83;;;;;;;;;;4979119;28;20558;-61
2023/08/25 01:19:04;;;;;;;8.90;3.90;;;;;;;;;;4964924;28;20059;-65
2023/08/25 01:21:34;;;;;;;6.53;3.65;;;;;;;;;;4973157;28;20042;-62
2023/08/25 01:24:10;;;;;;;8.52;3.90;;;;;;;;;;4973588;28;20085;-62
2023/08/25 01:26:37;;;;;;;6.38;3.90;;;;;;;;;;4966868;28;20476;-62
2023/08/25 01:29:02;;;;;;;5.85;3.58;;;;;;;;;;4973296;28;20383;-62
2023/08/25 01:31:28;;;;;;;8.80;4.50;;;;;;;;;;4973412;28;20042;-62
2023/08/25 01:33:53;;;;;;;8.48;4.20;;;;;;;;;;4973024;28;20472;-62
2023/08/25 01:36:38;;;;;;;6.55;4.10;;;;;;;;;;4973139;28;20031;-62
2023/08/25 01:39:08;;;;;;;6.88;4.03;;;;;;;;;;4966148;28;20038;-62
2023/08/25 01:41:50;;;;;;;7.55;4.07;;;;;;;;;;4973171;28;20035;-62
2023/08/25 01:44:19;;;;;;;5.07;4.40;;;;;;;;;;4973019;28;20047;-64
2023/08/25 01:46:48;;;;;;;6.20;4.20;;;;;;;;;;4959984;28;20038;-62
2023/08/25 01:49:14;;;;;;;6.90;4.47;;;;;;;;;;4954146;28;20420;-63
2023/08/25 01:51:40;;;;;;;5.45;4.03;;;;;;;;;;4966292;28;20125;-63
2023/08/25 01:54:06;;;;;;;5.68;4.10;;;;;;;;;;4973196;28;20122;-64
2023/08/25 01:56:31;;;;;;;5.45;4.28;;;;;;;;;;4976227;28;20026;-61
2023/08/25 01:58:56;;;;;;;5.75;4.30;;;;;;;;;;4976534;28;20473;-72
2023/08/25 02:01:22;;;;;;;8.23;4.60;;;;;;;;;;4976599;28;20085;-71
2023/08/25 02:03:47;;;;;;;6.57;4.25;;;;;;;;;;4976063;28;20057;-71
2023/08/25 02:06:13;;;;;;;5.82;4.22;;;;;;;;;;4976649;28;20062;-72
2023/08/25 02:08:38;;;;;;;8.85;5.05;;;;;;;;;;4976339;28;20033;-71
2023/08/25 02:11:04;;;;;;;7.80;4.40;;;;;;;;;;4976366;28;20471;-69
2023/08/25 02:13:30;;;;;;;5.90;4.22;;;;;;;;;;4976303;28;20533;-71
2023/08/25 02:15:55;;;;;;;7.10;4.63;;;;;;;;;;4976151;28;20030;-67
2023/08/25 02:18:21;;;;;;;8.25;4.75;;;;;;;;;;4975883;28;20085;-71
2023/08/25 02:20:46;;;;;;;6.18;4.60;;;;;;;;;;4975970;28;20054;-70
2023/08/25 02:23:12;;;;;;;9.98;4.88;;;;;;;;;;4976149;28;20034;-70
2023/08/25 02:25:37;;;;;;;8.77;5.00;;;;;;;;;;4976088;28;20045;-66
2023/08/25 02:28:03;;;;;;;6.45;5.00;;;;;;;;;;4976068;28;20039;-72
2023/08/25 02:30:28;;;;;;;7.10;5.05;;;;;;;;;;4975768;28;20507;-69
2023/08/25 02:32:57;;;;;;;6.70;4.75;;;;;;;;;;4975753;28;20483;-70
2023/08/25 02:35:22;;;;;;;6.90;4.80;;;;;;;;;;4975697;28;20031;-66
2023/08/25 02:38:05;;;;;;;9.15;4.50;;;;;;;;;;4975942;28;20049;-66
2023/08/25 02:40:31;;;;;;;7.78;4.63;;;;;;;;;;4975564;28;20062;-62
2023/08/25 02:42:59;;;;;;;6.82;5.03;;;;;;;;;;4975872;28;20037;-66
2023/08/25 02:45:26;;;;;;;8.57;5.35;;;;;;;;;;4975532;28;20023;-70
2023/08/25 02:47:53;;;;;;;7.30;5.05;;;;;;;;;;4975672;28;20049;-70
2023/08/25 02:50:18;;;;;;;7.63;5.30;;;;;;;;;;4975604;28;20182;-67
2023/08/25 02:52:44;;;;;;;8.15;5.07;;;;;;;;;;4975533;28;20030;-65
2023/08/25 02:55:11;;;;;;;8.13;5.30;;;;;;;;;;4975650;28;20476;-70
2023/08/25 02:57:37;;;;;;;7.90;5.18;;;;;;;;;;4975346;28;20042;-64
2023/08/25 03:00:04;;;;;;;6.75;5.10;;;;;;;;;;4975517;28;20026;-66
2023/08/25 03:02:29;;;;;;;9.20;5.00;;;;;;;;;;4975201;28;20117;-70
2023/08/25 03:04:55;;;;;;;8.48;5.88;;;;;;;;;;4967066;28;20118;-72
2023/08/25 03:07:20;;;;;;;8.05;5.18;;;;;;;;;;4967727;28;20027;-61
2023/08/25 03:09:46;;;;;;;6.57;5.22;;;;;;;;;;4975244;28;20039;-62
2023/08/25 03:12:11;;;;;;;6.20;5.05;;;;;;;;;;4975117;28;20077;-68
2023/08/25 03:14:36;;;;;;;7.18;5.20;;;;;;;;;;4977203;28;20038;-61
2023/08/25 03:17:02;;;;;;;9.50;5.90;;;;;;;;;;4984119;28;20546;-67
2023/08/25 03:19:27;;;;;;;7.05;5.32;;;;;;;;;;4974862;28;20491;-62
2023/08/25 03:21:53;;;;;;;8.57;5.10;;;;;;;;;;4974744;28;20130;-61
2023/08/25 03:24:18;;;;;;;7.47;4.70;;;;;;;;;;4974725;28;20076;-62
2023/08/25 03:26:43;;;;;;;6.32;4.90;;;;;;;;;;4975056;28;20551;-68
2023/08/25 03:29:09;;;;;;;8.00;4.72;;;;;;;;;;4974656;28;20499;-63
2023/08/25 03:31:35;;;;;;;8.93;4.60;;;;;;;;;;4974762;28;20061;-62
2023/08/25 03:34:00;;;;;;;7.47;4.55;;;;;;;;;;4974801;28;20487;-65
2023/08/25 03:36:26;;;;;;;7.07;4.53;;;;;;;;;;4974903;28;20159;-62
2023/08/25 03:38:52;;;;;;;9.50;5.20;;;;;;;;;;4974519;28;20545;-62
2023/08/25 03:41:17;;;;;;;6.68;4.72;;;;;;;;;;4974555;28;20027;-63
2023/08/25 03:43:42;;;;;;;7.30;5.20;;;;;;;;;;4974344;28;20035;-66
2023/08/25 03:46:08;;;;;;;9.02;4.90;;;;;;;;;;4974537;28;20506;-62
2023/08/25 03:48:33;;;;;;;8.40;5.00;;;;;;;;;;4974352;28;20065;-62
2023/08/25 03:50:59;;;;;;;6.28;5.15;;;;;;;;;;4974619;28;20046;-65
2023/08/25 03:53:24;;;;;;;9.43;5.65;;;;;;;;;;4974617;28;20023;-62
2023/08/25 03:55:50;;;;;;;10.73;5.13;;;;;;;;;;4974304;28;20075;-68
2023/08/25 03:58:15;;;;;;;7.68;5.43;;;;;;;;;;4973876;28;20058;-66
2023/08/25 04:00:40;;;;;;;7.03;5.22;;;;;;;;;;4974120;28;20026;-61
2023/08/25 04:03:06;;;;;;;7.97;5.63;;;;;;;;;;4974307;28;20420;-62
2023/08/25 04:05:35;;;;;;;8.25;5.57;;;;;;;;;;4974324;28;20057;-61
2023/08/25 04:08:00;;;;;;;9.50;5.90;;;;;;;;;;4974169;28;20039;-61
2023/08/25 04:10:26;;;;;;;8.32;5.57;;;;;;;;;;4973933;28;20126;-62
2023/08/25 04:12:51;;;;;;;10.63;6.40;;;;;;;;;;4968725;28;20031;-72
2023/08/25 04:15:20;;;;;;;12.63;5.78;;;;;;;;;;4972634;28;20052;-72
2023/08/25 04:17:45;;;;;;;8.65;5.90;;;;;;;;;;4979053;28;20023;-62
2023/08/25 04:20:11;;;;;;;7.20;5.78;;;;;;;;;;4972565;28;20041;-62
2023/08/25 04:22:36;;;;;;;8.48;5.70;;;;;;;;;;4970198;28;20031;-61
2023/08/25 04:25:02;;;;;;;10.50;5.30;;;;;;;;;;4959555;28;20120;-68
2023/08/25 04:27:27;;;;;;;8.93;5.60;;;;;;;;;;4973531;28;20067;-65
2023/08/25 04:29:52;;;;;;;12.40;5.65;;;;;;;;;;4974404;28;20026;-69
2023/08/25 04:32:19;;;;;;;9.80;5.50;;;;;;;;;;4977399;28;20061;-63
2023/08/25 04:34:44;;;;;;;9.77;5.28;;;;;;;;;;4974090;28;20027;-63
2023/08/25 04:37:10;;;;;;;8.40;5.45;;;;;;;;;;4983347;28;20105;-66
2023/08/25 04:39:35;;;;;;;8.57;5.18;;;;;;;;;;4967875;28;20070;-67
2023/08/25 04:42:00;;;;;;;10.05;6.07;;;;;;;;;;4974009;28;20125;-71
2023/08/25 04:44:26;;;;;;;8.68;6.18;;;;;;;;;;4976941;28;20030;-66
2023/08/25 04:46:51;;;;;;;7.78;6.22;;;;;;;;;;4973438;28;20042;-65
2023/08/25 04:49:17;;;;;;;8.07;5.95;;;;;;;;;;4972920;28;20038;-65
2023/08/25 04:51:42;;;;;;;9.60;6.97;;;;;;;;;;4974555;28;20030;-66
2023/08/25 04:54:09;;;;;;;15.80;6.50;;;;;;;;;;4975338;28;20242;-62
2023/08/25 04:56:34;;;;;;;12.27;6.72;;;;;;;;;;4974970;28;20035;-61
2023/08/25 04:59:00;;;;;;;9.35;6.47;;;;;;;;;;4974424;28;20069;-61
2023/08/25 05:01:25;;;;;;;9.60;6.13;;;;;;;;;;4966516;28;20089;-61
2023/08/25 05:03:51;;;;;;;8.68;6.00;;;;;;;;;;4964277;28;20081;-61
2023/08/25 05:06:16;;;;;;;10.43;6.05;;;;;;;;;;4965514;28;20027;-62
2023/08/25 05:08:42;;;;;;;14.23;6.13;;;;;;;;;;4965806;28;20031;-61
2023/08/25 05:11:09;;;;;;;7.47;6.10;;;;;;;;;;4962766;28;20050;-62
2023/08/25 05:13:34;;;;;;;9.23;6.38;;;;;;;;;;4962579;28;20093;-63
2023/08/25 05:16:00;;;;;;;10.05;6.72;;;;;;;;;;4962256;28;20118;-62
2023/08/25 05:18:25;;;;;;;11.93;6.50;;;;;;;;;;4962516;28;20118;-62
2023/08/25 05:20:56;;;;;;;9.70;6.18;;;;;;;;;;4966284;28;20055;-61
2023/08/25 05:23:22;;;;;;;12.75;6.35;;;;;;;;;;4962965;28;20054;-62
2023/08/25 05:25:47;;;;;;;11.95;7.18;;;;;;;;;;4981482;28;20488;-61
2023/08/25 05:28:13;;;;;;;9.55;6.78;;;;;;;;;;4964129;28;20031;-62
2023/08/25 05:30:38;;;;;;;9.95;6.30;;;;;;;;;;4961979;28;20049;-61
2023/08/25 05:33:04;;;;;;;10.27;6.93;;;;;;;;;;4969247;28;20043;-62
2023/08/25 05:35:29;;;;;;;12.75;6.25;;;;;;;;;;4961064;28;20109;-64
2023/08/25 05:37:54;;;;;;;16.00;6.93;;;;;;;;;;4979444;28;20022;-62
2023/08/25 05:40:20;;;;;;;13.52;6.45;;;;;;;;;;4989894;28;20039;-67
2023/08/25 05:42:45;;;;;;;9.98;7.20;;;;;;;;;;4971607;28;20046;-68
2023/08/25 05:45:11;;;;;;;7.75;6.00;;;;;;;;;;4958255;28;20045;-68
2023/08/25 05:47:36;;;;;;;9.60;5.95;;;;;;;;;;4972926;28;20369;-68
2023/08/25 05:50:02;;;;;;;11.65;5.82;;;;;;;;;;4956913;28;20023;-70
2023/08/25 05:52:27;;;;;;;10.23;6.40;;;;;;;;;;4973978;28;20479;-68
2023/08/25 05:54:53;;;;;;;9.10;5.88;;;;;;;;;;4955232;28;20027;-67
2023/08/25 05:57:18;;;;;;;6.70;5.25;;;;;;;;;;4975005;28;20069;-69
2023/08/25 05:59:43;;;;;;;9.63;5.45;;;;;;;;;;4969221;28;20066;-69
2023/08/25 06:02:09;;;;;;;7.13;5.40;;;;;;;;;;4974689;28;20475;-64
2023/08/25 06:04:34;;;;;;;7.22;5.30;;;;;;;;;;4957110;28;20035;-69
2023/08/25 06:07:00;;;;;;;10.07;5.50;;;;;;;;;;4972160;28;20031;-66
2023/08/25 06:09:25;;;;;;;9.05;5.60;;;;;;;;;;4958088;28;20058;-69
2023/08/25 06:11:51;;;;;;;9.38;5.60;;;;;;;;;;4970617;28;20440;-67
2023/08/25 06:14:17;;;;;;;10.07;5.72;;;;;;;;;;4959422;28;20134;-70
2023/08/25 06:16:42;;;;;;;7.70;5.40;;;;;;;;;;4983772;28;20045;-64
2023/08/25 06:19:08;;;;;;;8.63;6.30;;;;;;;;;;4979811;28;20037;-66
2023/08/25 06:21:33;;;;;;;8.50;5.68;;;;;;;;;;4959724;28;20046;-70
2023/08/25 06:23:59;;;;;;;10.98;5.32;;;;;;;;;;4967437;28;20046;-65
2023/08/25 06:26:24;;;;;;;8.75;5.70;;;;;;;;;;4962137;28;20492;-65
2023/08/25 06:28:52;;;;;;;12.77;6.68;;;;;;;;;;4966193;28;20039;-70
2023/08/25 06:31:18;;;;;;;12.00;5.50;;;;;;;;;;4963183;28;20028;-63
2023/08/25 06:33:44;;;;;;;7.25;5.20;;;;;;;;;;4965181;28;20038;-66
2023/08/25 06:36:10;;;;;;;9.55;5.10;;;;;;;;;;4964430;28;20111;-70
2023/08/25 06:38:35;;;;;;;9.80;5.28;;;;;;;;;;4963590;28;20105;-70
2023/08/25 06:41:00;;;;;;;11.40;5.47;;;;;;;;;;4964835;28;20412;-64
2023/08/25 06:43:26;;;;;;;8.93;5.55;;;;;;;;;;4962561;28;20117;-72
2023/08/25 06:45:51;;;;;;;14.35;5.28;;;;;;;;;;4966682;28;20399;-68
2023/08/25 06:48:17;;;;;;;12.48;5.53;;;;;;;;;;4961174;28;20480;-66
2023/08/25 06:50:42;;;;;;;18.73;5.55;;;;;;;;;;4967627;28;20031;-67
2023/08/25 06:53:08;;;;;;;10.98;5.13;;;;;;;;;;4964966;28;20022;-72
2023/08/25 06:55:34;;;;;;;6.90;4.70;;;;;;;;;;4988473;28;20043;-68
2023/08/25 06:58:00;;;;;;;9.73;4.55;;;;;;;;;;4969443;28;20027;-66
2023/08/25 07:00:25;;;;;;;12.20;4.35;;;;;;;;;;4966957;28;20042;-65
2023/08/25 07:02:51;;;;;;;6.00;3.90;;;;;;;;;;4965657;28;20035;-64
2023/08/25 07:05:20;;;;;;;4.53;3.60;;;;;;;;;;4975270;28;20105;-72
2023/08/25 07:07:46;;;;;;;5.88;4.10;;;;;;;;;;4974908;28;20412;-69
2023/08/25 07:10:15;;;;;;;9.57;4.40;;;;;;;;;;4975325;28;20112;-67
2023/08/25 07:12:40;;;;;;;7.15;4.20;;;;;;;;;;4975120;28;20039;-68
2023/08/25 07:15:07;;;;;;;8.32;4.20;;;;;;;;;;4975211;28;20373;-67
2023/08/25 07:17:33;;;;;;;8.27;4.40;;;;;;;;;;4975319;28;20394;-68
2023/08/25 07:19:59;;;;;;;6.75;3.55;;;;;;;;;;4974850;28;20038;-65
2023/08/25 07:22:25;;;;;;;6.78;3.65;;;;;;;;;;4974748;28;20039;-69
2023/08/25 07:24:53;;;;;;;9.73;3.50;;;;;;;;;;4974919;28;20034;-66
2023/08/25 07:27:21;;;;;;;6.13;3.38;;;;;;;;;;4974589;28;20123;-64
2023/08/25 07:29:47;;;;;;;10.63;3.83;;;;;;;;;;4973470;28;20031;-66
2023/08/25 07:32:13;;;;;;;11.82;3.47;;;;;;;;;;4974687;28;20730;-66
2023/08/25 07:34:43;;;;;;;9.30;3.22;;;;;;;;;;4974685;28;20428;-67
2023/08/25 07:37:09;;;;;;;5.65;3.15;;;;;;;;;;4974556;28;20114;-65
2023/08/25 07:39:34;;;;;;;7.50;3.17;;;;;;;;;;4974880;28;20126;-63
2023/08/25 07:41:59;;;;;;;7.95;3.50;;;;;;;;;;4974602;28;20147;-67
2023/08/25 07:44:25;;;;;;;7.95;3.17;;;;;;;;;;4974759;28;20034;-67
2023/08/25 07:46:50;;;;;;;5.93;3.13;;;;;;;;;;4974504;28;20037;-64
2023/08/25 07:49:16;;;;;;;7.10;3.10;;;;;;;;;;4974401;28;20045;-73
2023/08/25 07:51:41;;;;;;;8.68;3.28;;;;;;;;;;4974093;28;20066;-71
2023/08/25 07:54:07;;;;;;;8.63;3.03;;;;;;;;;;4973809;28;20117;-73
2023/08/25 07:56:38;;;;;;;10.45;3.20;;;;;;;;;;4974390;28;20092;-67
2023/08/25 07:59:05;;;;;;;9.88;3.03;;;;;;;;;;4976274;28;20070;-62
2023/08/25 08:01:31;;;;;;;7.65;3.10;;;;;;;;;;4974439;28;20027;-71
2023/08/25 08:03:56;;;;;;;4.30;2.92;;;;;;;;;;4974283;28;20027;-64
2023/08/25 08:06:22;;;;;;;12.48;3.00;;;;;;;;;;4974084;28;20038;-62
2023/08/25 08:08:48;;;;;;;5.32;3.13;;;;;;;;;;4974261;28;20170;-63
2023/08/25 08:11:14;;;;;;;6.25;3.33;;;;;;;;;;4974213;28;20042;-62
2023/08/25 08:13:39;;;;;;;5.03;3.38;;;;;;;;;;4974278;28;20050;-62
2023/08/25 08:16:05;;;;;;;5.78;3.45;;;;;;;;;;4974240;28;20035;-64
2023/08/25 08:18:30;;;;;;;7.35;3.08;;;;;;;;;;4973684;28;20039;-62
2023/08/25 08:20:56;;;;;;;5.97;3.17;;;;;;;;;;4973796;28;20054;-66
2023/08/25 08:23:21;;;;;;;8.35;3.58;;;;;;;;;;4973996;28;20038;-62
2023/08/25 08:25:47;;;;;;;7.95;3.38;;;;;;;;;;4974014;28;20019;-62
2023/08/25 08:28:13;;;;;;;6.32;3.17;;;;;;;;;;4974087;28;20035;-64
2023/08/25 08:30:38;;;;;;;8.18;3.40;;;;;;;;;;4973787;28;20046;-62
2023/08/25 08:33:05;;;;;;;8.07;3.35;;;;;;;;;;4973730;28;20034;-62
2023/08/25 08:35:31;;;;;;;10.60;3.20;;;;;;;;;;4973971;28;20114;-63
2023/08/25 08:37:56;;;;;;;5.13;3.10;;;;;;;;;;4973753;28;20109;-71
2023/08/25 08:40:22;;;;;;;7.25;3.35;;;;;;;;;;4973526;28;20074;-63
2023/08/25 08:42:49;;;;;;;6.35;3.45;;;;;;;;;;4973429;28;20035;-69
2023/08/25 08:45:17;;;;;;;4.22;3.50;;;;;;;;;;4973659;28;20033;-65
2023/08/25 08:47:44;;;;;;;7.50;3.72;;;;;;;;;;4973519;28;20077;-72
2023/08/25 08:50:10;;;;;;;10.52;3.45;;;;;;;;;;4973708;28;20519;-63
2023/08/25 08:52:35;;;;;;;5.68;3.65;;;;;;;;;;4973559;28;20083;-63
2023/08/25 08:55:04;;;;;;;6.95;3.10;;;;;;;;;;4973610;28;20035;-65
2023/08/25 08:57:30;;;;;;;;;;;;;;;;;;4969807;28;20055;-66
2023/08/25 08:59:58;;;;;;;5.32;3.45;;;;;;;;;;4975713;28;19962;-62
2023/08/25 09:02:27;;;;;;;9.93;3.43;;;;;;;;;;4973252;28;20030;-63
2023/08/25 09:04:53;;;;;;;8.43;3.70;;;;;;;;;;4978122;28;20081;-64
2023/08/25 09:07:20;;;;;;;5.90;3.30;;;;;;;;;;4979729;28;20066;-67
2023/08/25 09:09:46;;;;;;;7.18;3.40;;;;;;;;;;4978474;28;20089;-62
2023/08/25 09:12:13;;;;;;;6.35;3.00;;;;;;;;;;4980123;28;20038;-62
2023/08/25 09:14:39;;;;;;;6.63;3.30;;;;;;;;;;4979943;28;20089;-62
2023/08/25 09:17:06;;;;;;;6.18;3.13;;;;;;;;;;4978190;28;20031;-63
2023/08/25 09:19:33;;;;;;;5.78;3.17;;;;;;;;;;4979800;28;20035;-63
2023/08/25 09:21:59;;;;;;;9.18;3.20;;;;;;;;;;4979666;28;20122;-68
2023/08/25 09:24:25;;;;;;;7.50;3.17;;;;;;;;;;4979944;28;20534;-72
2023/08/25 09:26:51;;;;;;;7.13;3.40;;;;;;;;;;4979331;28;20034;-63
2023/08/25 09:29:17;;;;;;;7.65;3.40;;;;;;;;;;4979464;28;20053;-62
2023/08/25 09:31:44;;;;;;;6.82;3.08;;;;;;;;;;4979679;28;20555;-72
2023/08/25 09:34:13;;;;;;;6.82;2.75;;;;;;;;;;4979734;28;20038;-66
2023/08/25 09:36:50;;;;;;;5.13;3.00;;;;;;;;;;4967309;28;20031;-62
2023/08/25 09:39:16;;;;;;;7.28;3.08;;;;;;;;;;4973661;28;20505;-69
2023/08/25 09:41:43;;;;;;;5.85;3.00;;;;;;;;;;4979565;28;20070;-65
2023/08/25 09:44:09;;;;;;;4.47;2.53;;;;;;;;;;4979720;28;20034;-62
2023/08/25 09:46:34;;;;;;;6.13;2.60;;;;;;;;;;4979022;28;20031;-67
2023/08/25 09:49:01;;;;;;;7.45;3.33;;;;;;;;;;4979425;28;20034;-68
2023/08/25 09:51:39;;;;;;;4.65;2.88;;;;;;;;;;4979478;28;20598;-63
2023/08/25 09:54:13;;;;;;;5.05;2.90;;;;;;;;;;4979485;28;20031;-63
2023/08/25 09:56:43;;;;;;;4.07;2.55;;;;;;;;;;4979354;28;20077;-70
2023/08/25 09:59:10;;;;;;;4.60;2.70;;;;;;;;;;4980405;28;20456;-72
2023/08/25 10:01:38;;;;;;;10.52;2.97;;;;;;;;;;4979287;28;20031;-69
2023/08/25 10:04:05;;;;;;;4.72;2.40;;;;;;;;;;4979398;28;20033;-71
2023/08/25 10:06:32;;;;;;;6.18;3.08;;;;;;;;;;4979352;28;20476;-70
2023/08/25 10:09:01;;;;;;;5.72;2.70;;;;;;;;;;4979239;28;20043;-72
2023/08/25 10:11:30;;;;;;;6.10;2.65;;;;;;;;;;4979317;28;20073;-71
2023/08/25 10:13:59;;;;;;;6.40;2.80;;;;;;;;;;4979197;28;20046;-71
2023/08/25 10:16:27;;;;;;;7.57;2.67;;;;;;;;;;4958368;28;20027;-73
2023/08/25 10:18:56;;;;;;;7.18;2.70;;;;;;;;;;4973858;28;20038;-72
2023/08/25 10:21:23;;;;;;;3.88;2.53;;;;;;;;;;4976002;28;20057;-71
2023/08/25 10:23:52;;;;;;;3.70;2.30;;;;;;;;;;4975116;28;20116;-73
2023/08/25 10:26:18;;;;;;;4.85;2.22;;;;;;;;;;4976093;28;20495;-73
2023/08/25 10:28:45;;;;;;;3.67;2.65;;;;;;;;;;4976057;28;20094;-68
2023/08/25 10:31:12;;;;;;;5.40;2.78;;;;;;;;;;4975681;28;20046;-72
2023/08/25 10:33:51;;;;;;;4.60;2.50;;;;;;;;;;4975947;28;20043;-72
2023/08/25 10:36:18;;;;;;;4.97;2.80;;;;;;;;;;4975986;28;20035;-73
2023/08/25 10:38:54;;;;;;;3.72;2.22;;;;;;;;;;4975567;28;20510;-72
2023/08/25 10:41:20;;;;;;;4.10;2.35;;;;;;;;;;4975696;28;20129;-73
2023/08/25 10:43:51;;;;;;;5.07;2.70;;;;;;;;;;4975549;28;20109;-67
2023/08/25 10:46:22;;;;;;;5.75;2.30;;;;;;;;;;4963963;28;20042;-73
2023/08/25 10:48:51;;;;;;;4.20;2.50;;;;;;;;;;4963668;28;20440;-68
2023/08/25 10:51:19;;;;;;;7.50;2.38;;;;;;;;;;4975668;28;20118;-69
2023/08/25 10:53:52;;;;;;;4.95;2.78;;;;;;;;;;4975338;28;20039;-67
2023/08/25 10:56:18;;;;;;;8.27;2.50;;;;;;;;;;4975504;28;20098;-71
2023/08/25 10:58:55;;;;;;;6.63;3.00;;;;;;;;;;4975890;28;20026;-70
2023/08/25 11:01:23;;;;;;;5.75;2.95;;;;;;;;;;4975429;28;20075;-71
2023/08/25 11:04:04;;;;;;;6.07;2.57;;;;;;;;;;4975387;28;20092;-69
2023/08/25 11:06:57;;;;;;;3.45;2.50;;;;;;;;;;4974896;28;20066;-64
2023/08/25 11:09:26;;;;;;;5.63;2.30;;;;;;;;;;4972279;28;20043;-65
2023/08/25 11:12:03;;;;;;;3.63;2.33;;;;;;;;;;4975342;28;20502;-68
2023/08/25 11:14:37;;;;;;;3.85;2.40;;;;;;;;;;4975020;28;20051;-67
2023/08/25 11:17:15;;;;;;;5.88;2.38;;;;;;;;;;4975128;28;20046;-69
2023/08/25 11:19:42;;;;;;;8.23;2.30;;;;;;;;;;4973562;28;20424;-62
2023/08/25 11:22:09;;;;;;;7.55;2.08;;;;;;;;;;4974803;28;20038;-62
2023/08/25 11:24:35;;;;;;;5.30;2.30;;;;;;;;;;4975189;28;20027;-63
2023/08/25 11:27:11;;;;;;;4.90;2.30;;;;;;;;;;4974354;28;20037;-64
2023/08/25 11:29:44;;;;;;;2.78;1.80;;;;;;;;;;4974858;28;20085;-63
2023/08/25 11:32:13;;;;;;;7.28;2.22;;;;;;;;;;4974933;28;20037;-62
2023/08/25 11:34:39;;;;;;;3.28;1.95;;;;;;;;;;4974929;28;20485;-66
2023/08/25 11:37:05;;;;;;;3.33;1.75;;;;;;;;;;4974878;28;20027;-63
2023/08/25 11:39:31;;;;;;;3.03;1.70;;;;;;;;;;4974594;28;20034;-63
2023/08/25 11:41:57;;;;;;;4.07;1.75;;;;;;;;;;4974465;28;20110;-65
2023/08/25 11:44:23;;;;;;;3.70;1.80;;;;;;;;;;4974649;28;20030;-62
2023/08/25 11:46:51;;;;;;;3.28;1.70;;;;;;;;;;4974650;28;20037;-63
2023/08/25 11:49:19;;;;;;;3.63;2.03;;;;;;;;;;4974490;28;20042;-65
2023/08/25 11:51:44;;;;;;;5.70;1.80;;;;;;;;;;4974559;28;20038;-67
2023/08/25 11:54:10;;;;;;;3.75;1.70;;;;;;;;;;4974272;28;20034;-62
2023/08/25 11:56:36;;;;;;;4.05;1.60;;;;;;;;;;4974196;28;20062;-64
2023/08/25 11:59:02;;;;;;;4.60;1.70;;;;;;;;;;4976513;28;20034;-63
2023/08/25 12:01:32;;;;;;;2.78;1.70;;;;;;;;;;4974200;28;20055;-63
2023/08/25 12:03:59;;;;;;;3.65;1.73;;;;;;;;;;4974097;28;20041;-63
2023/08/25 12:06:25;;;;;;;4.53;1.40;;;;;;;;;;4974109;28;20027;-64
2023/08/25 12:08:50;;;;;;;4.03;1.70;;;;;;;;;;4974135;28;20189;-63
2023/08/25 12:11:16;;;;;;;8.27;1.60;;;;;;;;;;4973884;28;20440;-63
2023/08/25 12:13:43;;;;;;;3.85;1.80;;;;;;;;;;4966195;28;20119;-63
2023/08/25 12:16:12;;;;;;;3.03;1.67;;;;;;;;;;4974053;28;20039;-63
2023/08/25 12:18:38;;;;;;;3.60;1.80;;;;;;;;;;4973921;28;20057;-62
2023/08/25 12:21:06;;;;;;;3.88;1.77;;;;;;;;;;4973637;28;20503;-64
2023/08/25 12:23:39;;;;;;;3.08;1.88;;;;;;;;;;4973984;28;20140;-62
2023/08/25 12:26:08;;;;;;;3.83;1.60;;;;;;;;;;4973781;28;20027;-64
2023/08/25 12:28:34;;;;;;;3.97;1.90;;;;;;;;;;4973945;28;20082;-62
2023/08/25 12:31:00;;;;;;;5.22;2.00;;;;;;;;;;4973811;28;20023;-63
2023/08/25 12:33:29;;;;;;;4.38;1.98;;;;;;;;;;4973838;28;20041;-63
2023/08/25 12:35:58;;;;;;;3.63;1.98;;;;;;;;;;4973770;28;20050;-62
2023/08/25 12:38:24;;;;;;;3.25;1.67;;;;;;;;;;4973095;28;20070;-64
2023/08/25 12:40:49;;;;;;;3.78;1.52;;;;;;;;;;4973218;28;20088;-62
2023/08/25 12:43:15;;;;;;;2.00;1.42;;;;;;;;;;4973589;28;20035;-62
2023/08/25 12:45:40;;;;;;;6.10;1.58;;;;;;;;;;4973666;28;20031;-64
2023/08/25 12:48:07;;;;;;;4.22;1.40;;;;;;;;;;4973498;28;20038;-63
2023/08/25 12:50:32;;;;;;;6.43;1.48;;;;;;;;;;4973401;28;20109;-64
2023/08/25 12:52:58;;;;;;;3.15;1.60;;;;;;;;;;4973473;28;20117;-63
2023/08/25 12:55:24;;;;;;;3.38;1.60;;;;;;;;;;4968859;28;20034;-62
2023/08/25 12:57:49;;;;;;;2.92;1.30;;;;;;;;;;4964494;28;20027;-64
2023/08/25 13:00:16;;;;;;;3.58;1.50;;;;;;;;;;4972108;28;20396;-62
2023/08/25 13:02:41;;;;;;;3.00;1.40;;;;;;;;;;4973260;28;20125;-64
2023/08/25 13:05:09;;;;;;;3.97;1.50;;;;;;;;;;4973201;28;20102;-63
2023/08/25 13:07:37;;;;;;;4.50;1.40;;;;;;;;;;4973384;28;20030;-62
2023/08/25 13:10:04;;;;;;;5.18;1.58;;;;;;;;;;4964312;28;20027;-62
2023/08/25 13:12:30;;;;;;;3.03;1.45;;;;;;;;;;4966038;28;20468;-62
2023/08/25 13:14:55;;;;;;;4.47;1.50;;;;;;;;;;4964136;28;20030;-62
2023/08/25 13:17:20;;;;;;;3.63;1.60;;;;;;;;;;4964661;28;20027;-64
2023/08/25 13:19:46;;;;;;;2.92;1.60;;;;;;;;;;4970452;28;20019;-63
2023/08/25 13:22:11;;;;;;;2.97;1.60;;;;;;;;;;4973214;28;20062;-63
2023/08/25 13:24:37;;;;;;;3.47;1.70;;;;;;;;;;4972901;28;20499;-62
2023/08/25 13:27:02;;;;;;;6.20;1.70;;;;;;;;;;4973261;28;20026;-63
2023/08/25 13:29:28;;;;;;;7.10;1.63;;;;;;;;;;4973606;28;20107;-62
2023/08/25 13:31:53;;;;;;;9.73;2.30;;;;;;;;;;4972610;28;20066;-62
2023/08/25 13:34:19;;;;;;;6.68;2.47;;;;;;;;;;4964524;28;20042;-63
2023/08/25 13:36:44;;;;;;;5.55;2.30;;;;;;;;;;4963164;28;20027;-62
2023/08/25 13:39:09;;;;;;;5.60;2.17;;;;;;;;;;4964670;28;20034;-62
2023/08/25 13:41:35;;;;;;;6.63;2.33;;;;;;;;;;4966164;28;20027;-65
2023/08/25 13:44:02;;;;;;;8.55;2.00;;;;;;;;;;4964145;28;20031;-62
2023/08/25 13:46:28;;;;;;;5.43;1.92;;;;;;;;;;4963859;28;20102;-64
2023/08/25 13:48:53;;;;;;;3.58;2.30;;;;;;;;;;4963763;28;20150;-63
2023/08/25 13:51:19;;;;;;;5.38;2.10;;;;;;;;;;4959761;28;20035;-64
2023/08/25 13:53:45;;;;;;;5.75;2.40;;;;;;;;;;4974139;28;20435;-66
2023/08/25 13:56:12;;;;;;;4.53;1.80;;;;;;;;;;4976451;28;20038;-63
2023/08/25 13:58:38;;;;;;;3.80;2.45;;;;;;;;;;4978023;28;20070;-64
2023/08/25 14:01:04;;;;;;;8.55;2.40;;;;;;;;;;4976559;28;20066;-63
2023/08/25 14:03:33;;;;;;;6.22;2.25;;;;;;;;;;4976505;28;20038;-63
2023/08/25 14:05:59;;;;;;;8.83;2.30;;;;;;;;;;4976636;28;20118;-62
2023/08/25 14:08:27;;;;;;;4.57;2.30;;;;;;;;;;4976123;28;20033;-63
2023/08/25 14:10:53;;;;;;;6.55;2.60;;;;;;;;;;4976680;28;20449;-62
2023/08/25 14:13:18;;;;;;;5.68;2.08;;;;;;;;;;4968977;28;20110;-65
2023/08/25 14:15:44;;;;;;;7.38;2.40;;;;;;;;;;4976123;28;20384;-63
2023/08/25 14:18:10;;;;;;;5.15;1.90;;;;;;;;;;4976061;28;20102;-63
2023/08/25 14:20:35;;;;;;;4.43;1.77;;;;;;;;;;4975611;28;20047;-64
2023/08/25 14:23:04;;;;;;;4.45;1.80;;;;;;;;;;4975954;28;20038;-63
2023/08/25 14:25:30;;;;;;;6.40;1.83;;;;;;;;;;4974977;28;20105;-63
2023/08/25 14:27:56;;;;;;;5.47;2.03;;;;;;;;;;4976171;28;20027;-66
2023/08/25 14:30:23;;;;;;;3.90;2.10;;;;;;;;;;4976150;28;20034;-62
2023/08/25 14:32:49;;;;;;;5.97;2.20;;;;;;;;;;4976092;28;20082;-62
2023/08/25 14:35:14;;;;;;;5.03;2.03;;;;;;;;;;4960679;28;20027;-63
2023/08/25 14:37:40;;;;;;;8.38;2.17;;;;;;;;;;4975962;28;20097;-67
2023/08/25 14:40:06;;;;;;;7.10;2.28;;;;;;;;;;4975866;28;20031;-69